Time;durP1;ratioP1;P1;durP2;ratioP2;P2;SDS_P1;SDS_P2;PMS_P1;PMS_P2;Temp;Humidity;BMP_temperature;BMP_pressure;BME280_temperature;BME280_humidity;BME280_pressure;Samples;Min_cycle;Max_cycle;Signal;HPM_P1;HPM_P2
2023/09/25 00:01:17;;;;;;;1.15;1.00;;;15.80;99.90;;;;;;4181640;28;20402;-66
2023/09/25 00:03:17;;;;;;;1.40;0.90;;;15.80;99.90;;;;;;4185125;28;20100;-66
2023/09/25 00:05:18;;;;;;;1.95;0.93;;;15.80;99.90;;;;;;4181772;28;20028;-66
2023/09/25 00:07:19;;;;;;;2.60;0.82;;;15.80;99.90;;;;;;4181809;28;20517;-66
2023/09/25 00:09:19;;;;;;;1.42;1.17;;;15.80;99.90;;;;;;4186788;28;20506;-68
2023/09/25 00:11:20;;;;;;;1.70;1.05;;;15.80;99.90;;;;;;4168884;28;20075;-71
2023/09/25 00:13:21;;;;;;;5.55;1.17;;;15.80;99.90;;;;;;4179511;28;20036;-71
2023/09/25 00:15:21;;;;;;;2.65;1.20;;;15.80;99.90;;;;;;4172087;28;20033;-70
2023/09/25 00:17:22;;;;;;;1.42;0.90;;;15.80;99.90;;;;;;4182346;28;20068;-72
2023/09/25 00:19:22;;;;;;;2.15;1.02;;;15.90;99.90;;;;;;4181738;28;20025;-71
2023/09/25 00:21:23;;;;;;;1.92;1.15;;;15.90;99.90;;;;;;4180357;28;20037;-72
2023/09/25 00:23:24;;;;;;;1.98;1.15;;;15.90;99.90;;;;;;4182353;28;20486;-72
2023/09/25 00:25:24;;;;;;;1.63;0.93;;;15.90;99.90;;;;;;4185800;28;20037;-71
2023/09/25 00:27:25;;;;;;;1.25;0.93;;;15.90;99.90;;;;;;4185821;28;20033;-72
2023/09/25 00:29:25;;;;;;;1.50;1.00;;;16.00;99.90;;;;;;4183067;28;20060;-72
2023/09/25 00:31:26;;;;;;;1.40;0.98;;;15.90;99.90;;;;;;4185320;28;20497;-71
2023/09/25 00:33:27;;;;;;;2.15;1.30;;;16.00;99.90;;;;;;4178992;28;20066;-71
2023/09/25 00:35:27;;;;;;;2.17;1.10;;;16.00;99.90;;;;;;4171011;28;20645;-71
2023/09/25 00:37:29;;;;;;;1.30;1.00;;;16.00;99.90;;;;;;4180743;28;20443;-72
2023/09/25 00:39:31;;;;;;;2.92;1.35;;;16.00;99.90;;;;;;4184785;28;20044;-71
2023/09/25 00:41:32;;;;;;;0.88;0.65;;;16.00;99.90;;;;;;4185665;28;20033;-72
2023/09/25 00:43:32;;;;;;;1.15;1.02;;;16.00;99.90;;;;;;4200043;28;20127;-71
2023/09/25 00:45:37;;;;;;;2.50;1.10;;;16.00;99.90;;;;;;4182451;28;20044;-71
2023/09/25 00:47:41;;;;;;;2.47;1.20;;;16.00;99.90;;;;;;4187362;28;20387;-72
2023/09/25 00:49:41;;;;;;;1.15;1.00;;;16.00;99.90;;;;;;4180132;28;20048;-72
2023/09/25 00:51:44;;;;;;;1.60;0.90;;;16.00;99.90;;;;;;4171046;28;20025;-72
2023/09/25 00:53:47;;;;;;;1.20;0.95;;;16.00;99.90;;;;;;4173226;28;20032;-71
2023/09/25 00:55:48;;;;;;;;;;;16.00;99.90;;;;;;4167256;28;20034;-72
2023/09/25 00:57:51;;;;;;;1.85;1.08;;;16.00;99.90;;;;;;4186893;28;20392;-72
2023/09/25 00:59:52;;;;;;;1.40;1.10;;;16.00;99.90;;;;;;4182382;28;20021;-72
2023/09/25 01:01:53;;;;;;;1.42;0.90;;;16.00;99.90;;;;;;4181398;28;20024;-72
2023/09/25 01:03:53;;;;;;;1.33;1.10;;;16.00;99.90;;;;;;4181917;28;20085;-72
2023/09/25 01:05:54;;;;;;;2.55;0.90;;;16.00;99.90;;;;;;4181229;28;20028;-71
2023/09/25 01:07:54;;;;;;;1.55;0.93;;;15.90;99.90;;;;;;4181203;28;20040;-71
2023/09/25 01:10:14;;;;;;;2.45;1.00;;;15.90;99.90;;;;;;4179270;28;20049;-72
2023/09/25 01:12:14;;;;;;;1.95;1.25;;;15.90;99.90;;;;;;4178399;28;20044;-69
2023/09/25 01:14:15;;;;;;;1.75;1.13;;;15.90;99.90;;;;;;4183794;28;20040;-71
2023/09/25 01:16:16;;;;;;;6.32;1.00;;;15.80;99.90;;;;;;4185060;28;20037;-69
2023/09/25 01:18:17;;;;;;;2.47;1.10;;;15.80;99.90;;;;;;4174815;28;20037;-72
2023/09/25 01:20:17;;;;;;;2.10;1.20;;;15.80;99.90;;;;;;4176462;28;20033;-66
2023/09/25 01:22:18;;;;;;;1.83;1.02;;;15.80;99.90;;;;;;4170214;28;20034;-66
2023/09/25 01:24:19;;;;;;;2.03;1.10;;;15.70;99.90;;;;;;4167803;28;20028;-66
2023/09/25 01:26:19;;;;;;;1.98;1.27;;;15.70;99.90;;;;;;4177165;28;20044;-66
2023/09/25 01:28:20;;;;;;;1.48;1.10;;;15.70;99.90;;;;;;4183179;28;20043;-66
2023/09/25 01:30:21;;;;;;;1.52;1.10;;;15.70;99.90;;;;;;4184536;28;20505;-67
2023/09/25 01:32:21;;;;;;;3.05;1.30;;;15.70;99.90;;;;;;4179188;28;20407;-66
2023/09/25 01:34:23;;;;;;;2.92;1.50;;;15.60;99.90;;;;;;4182331;28;20085;-67
2023/09/25 01:36:23;;;;;;;2.63;1.52;;;15.60;99.90;;;;;;4179084;28;20402;-65
2023/09/25 01:38:24;;;;;;;1.17;0.88;;;15.60;99.90;;;;;;4171748;28;20025;-66
2023/09/25 01:40:25;;;;;;;2.15;1.30;;;15.60;99.90;;;;;;4168036;28;20517;-65
2023/09/25 01:42:26;;;;;;;1.63;1.10;;;15.50;99.90;;;;;;4176024;28;20044;-66
2023/09/25 01:44:28;;;;;;;4.43;1.40;;;15.50;99.90;;;;;;4183080;28;20090;-65
2023/09/25 01:46:29;;;;;;;1.35;1.05;;;15.50;99.90;;;;;;4179168;28;20056;-66
2023/09/25 01:48:30;;;;;;;2.30;1.13;;;15.40;99.90;;;;;;4182866;28;20025;-66
2023/09/25 01:50:30;;;;;;;1.45;1.15;;;15.40;99.90;;;;;;4181401;28;20059;-65
2023/09/25 01:52:31;;;;;;;2.78;1.30;;;15.40;99.90;;;;;;4181988;28;20128;-65
2023/09/25 01:54:32;;;;;;;2.75;1.15;;;15.30;99.90;;;;;;4169243;28;20037;-66
2023/09/25 01:56:32;;;;;;;1.33;1.05;;;15.30;99.90;;;;;;4166890;28;20033;-65
2023/09/25 01:58:33;;;;;;;1.25;0.95;;;15.30;99.90;;;;;;4170404;28;20479;-65
2023/09/25 02:00:34;;;;;;;1.52;1.13;;;15.30;99.90;;;;;;4172452;28;20037;-66
2023/09/25 02:02:38;;;;;;;2.70;1.23;;;15.20;99.90;;;;;;4180415;28;20472;-65
2023/09/25 02:04:38;;;;;;;1.60;1.08;;;15.20;99.90;;;;;;4181950;28;20387;-65
2023/09/25 02:06:39;;;;;;;3.78;1.55;;;15.10;99.90;;;;;;4172948;28;20036;-65
2023/09/25 02:08:40;;;;;;;1.88;1.00;;;15.00;99.90;;;;;;4176902;28;20041;-65
2023/09/25 02:10:41;;;;;;;2.30;1.33;;;15.00;99.90;;;;;;4181810;28;21162;-65
2023/09/25 02:12:43;;;;;;;2.65;1.42;;;14.90;99.90;;;;;;4177296;28;20044;-65
2023/09/25 02:14:43;;;;;;;2.35;1.10;;;14.90;99.90;;;;;;4183920;28;20036;-65
2023/09/25 02:16:44;;;;;;;3.45;1.40;;;14.90;99.90;;;;;;4182797;28;20031;-66
2023/09/25 02:18:44;;;;;;;3.30;1.27;;;14.80;99.90;;;;;;4182213;28;20433;-65
2023/09/25 02:20:46;;;;;;;2.08;1.10;;;14.90;99.90;;;;;;4181582;28;20419;-66
2023/09/25 02:22:48;;;;;;;4.30;1.15;;;14.90;99.90;;;;;;4183941;28;20476;-65
2023/09/25 02:24:48;;;;;;;1.70;1.25;;;14.80;99.90;;;;;;4183086;28;20386;-65
2023/09/25 02:26:49;;;;;;;2.20;1.30;;;14.70;99.90;;;;;;4183545;28;20032;-65
2023/09/25 02:28:49;;;;;;;1.83;1.10;;;14.70;99.90;;;;;;4182351;28;20032;-67
2023/09/25 02:30:51;;;;;;;1.88;1.08;;;14.60;99.90;;;;;;4177407;28;20073;-68
2023/09/25 02:32:51;;;;;;;1.98;1.05;;;14.60;99.90;;;;;;4178804;28;20065;-68
2023/09/25 02:34:52;;;;;;;1.70;1.00;;;14.60;99.90;;;;;;4183432;28;20050;-68
2023/09/25 02:36:52;;;;;;;2.15;1.30;;;14.50;99.90;;;;;;4183247;28;20059;-68
2023/09/25 02:38:53;;;;;;;5.35;1.13;;;14.50;99.90;;;;;;4182754;28;20032;-68
2023/09/25 02:40:54;;;;;;;1.55;1.02;;;14.60;99.90;;;;;;4187463;28;20047;-68
2023/09/25 02:42:54;;;;;;;2.38;1.10;;;14.50;99.90;;;;;;4182232;28;20482;-68
2023/09/25 02:44:55;;;;;;;1.63;0.98;;;14.50;99.90;;;;;;4164289;28;20034;-67
2023/09/25 02:46:55;;;;;;;2.20;0.98;;;14.50;99.90;;;;;;4169681;28;20045;-67
2023/09/25 02:48:56;;;;;;;1.80;1.00;;;14.50;99.90;;;;;;4168930;28;20044;-68
2023/09/25 02:50:57;;;;;;;1.48;1.05;;;14.50;99.90;;;;;;4166079;28;20061;-68
2023/09/25 02:52:57;;;;;;;2.72;1.30;;;14.40;99.90;;;;;;4172771;28;20030;-68
2023/09/25 02:54:58;;;;;;;1.67;1.13;;;14.50;99.90;;;;;;4169407;28;20094;-68
2023/09/25 02:56:58;;;;;;;3.65;1.30;;;14.50;99.90;;;;;;4168949;28;20403;-67
2023/09/25 02:58:59;;;;;;;2.90;1.35;;;14.40;99.90;;;;;;4164079;28;20032;-68
2023/09/25 03:01:00;;;;;;;2.22;1.00;;;14.40;99.90;;;;;;4179198;28;20052;-68
2023/09/25 03:03:00;;;;;;;1.48;1.17;;;14.50;99.90;;;;;;4177932;28;20498;-68
2023/09/25 03:05:01;;;;;;;2.25;1.10;;;14.60;99.90;;;;;;4187159;28;20133;-68
2023/09/25 03:07:02;;;;;;;2.05;0.98;;;14.50;99.90;;;;;;4169000;28;20053;-68
2023/09/25 03:09:03;;;;;;;1.25;0.93;;;14.50;99.90;;;;;;4178675;28;20037;-67
2023/09/25 03:11:03;;;;;;;2.67;1.23;;;14.50;99.90;;;;;;4175620;28;20033;-68
2023/09/25 03:13:04;;;;;;;2.38;1.20;;;14.50;99.90;;;;;;4178024;28;20127;-68
2023/09/25 03:15:05;;;;;;;0.88;0.70;;;14.50;99.90;;;;;;4183254;28;20028;-68
2023/09/25 03:17:05;;;;;;;1.63;1.02;;;14.50;99.90;;;;;;4186986;28;20047;-68
2023/09/25 03:19:06;;;;;;;1.98;1.15;;;14.50;99.90;;;;;;4184693;28;20025;-68
2023/09/25 03:21:14;;;;;;;1.70;1.05;;;14.50;99.90;;;;;;4184780;28;20686;-67
2023/09/25 03:23:15;;;;;;;3.42;1.20;;;14.50;99.90;;;;;;4173221;28;20040;-68
2023/09/25 03:25:16;;;;;;;1.98;1.30;;;14.50;99.90;;;;;;4169590;28;20037;-68
2023/09/25 03:27:16;;;;;;;2.33;0.82;;;14.50;99.90;;;;;;4155538;28;20064;-68
2023/09/25 03:29:17;;;;;;;1.45;0.88;;;14.50;99.90;;;;;;4185923;28;20089;-68
2023/09/25 03:31:18;;;;;;;1.48;0.82;;;14.50;99.90;;;;;;4177418;28;20041;-68
2023/09/25 03:33:20;;;;;;;1.63;1.00;;;14.50;99.90;;;;;;4185814;28;20039;-67
2023/09/25 03:35:21;;;;;;;1.38;1.00;;;14.40;99.90;;;;;;4188417;28;20033;-68
2023/09/25 03:37:22;;;;;;;1.58;0.80;;;14.50;99.90;;;;;;4183148;28;20037;-68
2023/09/25 03:39:23;;;;;;;1.00;0.82;;;14.50;99.90;;;;;;4178137;28;20393;-68
2023/09/25 03:41:23;;;;;;;4.28;1.40;;;14.50;99.90;;;;;;4180567;28;20021;-66
2023/09/25 03:43:24;;;;;;;1.33;1.00;;;14.50;99.90;;;;;;4189432;28;20025;-67
2023/09/25 03:45:25;;;;;;;1.77;0.95;;;14.50;99.90;;;;;;4181551;28;20060;-66
2023/09/25 03:47:25;;;;;;;1.27;0.93;;;14.40;99.90;;;;;;4177523;28;20049;-66
2023/09/25 03:49:26;;;;;;;1.80;1.02;;;14.40;99.90;;;;;;4182549;28;20057;-66
2023/09/25 03:51:27;;;;;;;2.28;1.20;;;14.50;99.90;;;;;;4182726;28;20509;-68
2023/09/25 03:53:27;;;;;;;1.58;0.93;;;14.50;99.90;;;;;;4168382;28;20030;-66
2023/09/25 03:55:29;;;;;;;1.15;0.88;;;14.50;99.90;;;;;;4168520;28;20112;-66
2023/09/25 03:57:29;;;;;;;2.28;1.30;;;14.50;99.90;;;;;;4141770;28;20076;-67
2023/09/25 03:59:30;;;;;;;2.38;1.25;;;14.50;99.90;;;;;;4172172;28;20021;-66
2023/09/25 04:01:31;;;;;;;2.63;1.23;;;14.50;99.90;;;;;;4173118;28;20045;-66
2023/09/25 04:03:31;;;;;;;2.25;1.50;;;14.50;99.90;;;;;;4167378;28;20041;-66
2023/09/25 04:05:33;;;;;;;2.30;1.40;;;14.30;99.90;;;;;;4163434;28;20098;-65
2023/09/25 04:07:33;;;;;;;3.38;1.50;;;14.40;99.90;;;;;;4167820;28;20061;-65
2023/09/25 04:09:34;;;;;;;3.40;1.65;;;14.30;99.90;;;;;;4183888;28;20593;-66
2023/09/25 04:11:35;;;;;;;2.85;1.70;;;14.30;99.90;;;;;;4179392;28;20044;-66
2023/09/25 04:13:35;;;;;;;3.78;1.73;;;14.30;99.90;;;;;;4182836;28;20037;-65
2023/09/25 04:15:38;;;;;;;;;;;14.30;99.90;;;;;;4177719;28;20087;-65
2023/09/25 04:17:42;;;;;;;3.58;1.88;;;14.20;99.90;;;;;;4187189;28;19916;-66
2023/09/25 04:19:44;;;;;;;3.15;1.52;;;14.20;99.90;;;;;;4183394;28;20031;-65
2023/09/25 04:21:47;;;;;;;5.38;1.90;;;14.20;99.90;;;;;;4179141;28;20025;-65
2023/09/25 04:23:48;;;;;;;4.38;1.65;;;14.20;99.90;;;;;;4182917;28;20047;-65
2023/09/25 04:25:52;;;;;;;2.22;1.55;;;14.20;99.90;;;;;;4182994;28;20401;-65
2023/09/25 04:27:54;;;;;;;3.65;1.95;;;14.20;99.90;;;;;;4181764;28;20037;-65
2023/09/25 04:29:55;;;;;;;4.65;1.50;;;14.20;99.90;;;;;;4178144;28;20032;-68
2023/09/25 04:31:55;;;;;;;4.28;1.75;;;14.20;99.90;;;;;;4182957;28;20029;-66
2023/09/25 04:33:56;;;;;;;1.67;1.38;;;14.20;99.90;;;;;;4179296;28;20090;-65
2023/09/25 04:36:01;;;;;;;3.25;1.48;;;14.20;99.90;;;;;;4185898;28;20037;-66
2023/09/25 04:38:03;;;;;;;2.80;1.38;;;14.20;99.90;;;;;;4180892;28;20134;-66
2023/09/25 04:40:14;;;;;;;3.13;1.25;;;14.20;99.90;;;;;;4180324;28;20362;-66
2023/09/25 04:42:15;;;;;;;1.50;1.08;;;14.30;99.90;;;;;;4183275;28;20025;-66
2023/09/25 04:44:16;;;;;;;1.35;0.98;;;14.30;99.90;;;;;;4181711;28;20449;-66
2023/09/25 04:46:16;;;;;;;2.35;1.25;;;14.30;99.90;;;;;;4181657;28;20028;-68
2023/09/25 04:48:18;;;;;;;2.70;1.13;;;14.30;99.90;;;;;;4181100;28;20032;-67
2023/09/25 04:50:23;;;;;;;2.65;1.30;;;14.30;99.90;;;;;;4184440;28;20141;-70
2023/09/25 04:52:24;;;;;;;3.75;1.48;;;14.30;99.90;;;;;;4178308;28;20048;-71
2023/09/25 04:54:24;;;;;;;1.45;1.13;;;14.30;99.90;;;;;;4182356;28;21181;-71
2023/09/25 04:56:25;;;;;;;1.80;0.85;;;14.30;99.90;;;;;;4181176;28;20064;-71
2023/09/25 04:58:25;;;;;;;2.40;1.20;;;14.30;99.90;;;;;;4178110;28;20398;-70
2023/09/25 05:00:27;;;;;;;1.70;1.10;;;14.30;99.90;;;;;;4176579;28;20073;-72
2023/09/25 05:02:27;;;;;;;2.60;1.48;;;14.30;99.90;;;;;;4178602;28;20043;-73
2023/09/25 05:04:28;;;;;;;3.97;1.38;;;14.30;99.90;;;;;;4179430;28;20468;-69
2023/09/25 05:06:29;;;;;;;3.20;1.42;;;14.30;99.90;;;;;;4183191;28;20037;-72
2023/09/25 05:08:30;;;;;;;1.50;1.08;;;14.30;99.90;;;;;;4169286;28;20486;-65
2023/09/25 05:10:30;;;;;;;1.15;0.77;;;14.30;99.90;;;;;;4169196;28;20102;-64
2023/09/25 05:12:31;;;;;;;2.08;0.85;;;14.30;99.90;;;;;;4177419;28;20037;-63
2023/09/25 05:14:32;;;;;;;1.55;1.23;;;14.30;99.90;;;;;;4178003;28;20127;-63
2023/09/25 05:16:32;;;;;;;1.77;1.10;;;14.30;99.90;;;;;;4183855;28;20045;-65
2023/09/25 05:18:33;;;;;;;1.58;1.05;;;14.40;99.90;;;;;;4168255;28;20105;-64
2023/09/25 05:20:34;;;;;;;2.00;1.17;;;14.30;99.90;;;;;;4177321;28;20045;-64
2023/09/25 05:22:35;;;;;;;1.63;1.17;;;14.30;99.90;;;;;;4154516;28;20488;-67
2023/09/25 05:24:35;;;;;;;1.92;1.00;;;14.30;99.90;;;;;;4183234;28;20036;-67
2023/09/25 05:26:36;;;;;;;1.77;1.13;;;14.30;99.90;;;;;;4167810;28;20449;-64
2023/09/25 05:28:37;;;;;;;2.00;1.20;;;14.30;99.90;;;;;;4154340;28;20044;-65
2023/09/25 05:30:38;;;;;;;2.00;1.23;;;14.20;99.90;;;;;;4161877;28;21303;-65
2023/09/25 05:32:41;;;;;;;1.85;1.17;;;14.30;99.90;;;;;;4157055;28;20529;-64
2023/09/25 05:34:41;;;;;;;;;;;14.30;99.90;;;;;;4173542;28;20030;-64
2023/09/25 05:36:42;;;;;;;1.40;0.95;;;14.30;99.90;;;;;;4179928;28;19908;-65
2023/09/25 05:38:42;;;;;;;3.72;1.30;;;14.30;99.90;;;;;;4179866;28;20028;-66
2023/09/25 05:40:43;;;;;;;2.25;1.50;;;14.30;99.90;;;;;;4182981;28;20033;-65
2023/09/25 05:42:45;;;;;;;3.72;1.65;;;14.30;99.90;;;;;;4169322;28;20944;-64
2023/09/25 05:44:46;;;;;;;1.10;1.00;;;14.30;99.90;;;;;;4180285;28;20028;-66
2023/09/25 05:46:47;;;;;;;1.88;1.17;;;14.30;99.90;;;;;;4174446;28;20047;-64
2023/09/25 05:48:47;;;;;;;4.15;1.00;;;14.40;99.90;;;;;;4179700;28;20043;-64
2023/09/25 05:50:48;;;;;;;1.88;1.30;;;14.30;99.90;;;;;;4178672;28;20040;-64
2023/09/25 05:52:49;;;;;;;2.47;1.23;;;14.40;99.90;;;;;;4177061;28;20036;-66
2023/09/25 05:54:51;;;;;;;2.72;1.20;;;14.40;99.90;;;;;;4178226;28;20494;-64
2023/09/25 05:56:51;;;;;;;3.20;1.25;;;14.40;99.90;;;;;;4176689;28;20037;-65
2023/09/25 05:58:52;;;;;;;2.20;1.40;;;14.40;99.90;;;;;;4178246;28;20039;-64
2023/09/25 06:00:53;;;;;;;3.47;1.58;;;14.40;99.90;;;;;;4176636;28;20045;-65
2023/09/25 06:02:54;;;;;;;1.58;1.20;;;14.40;99.90;;;;;;4181316;28;20111;-64
2023/09/25 06:04:54;;;;;;;3.22;1.33;;;14.40;99.90;;;;;;4179873;28;20043;-64
2023/09/25 06:06:55;;;;;;;2.13;1.35;;;14.50;99.90;;;;;;4177336;28;20048;-67
2023/09/25 06:08:56;;;;;;;2.35;0.90;;;14.50;99.90;;;;;;4179597;28;20171;-65
2023/09/25 06:11:02;;;;;;;1.50;1.10;;;14.50;99.90;;;;;;4178915;28;20642;-66
2023/09/25 06:13:04;;;;;;;1.20;1.00;;;14.50;99.90;;;;;;4179215;28;20037;-64
2023/09/25 06:15:09;;;;;;;2.42;1.35;;;14.60;99.90;;;;;;4179595;28;20037;-65
2023/09/25 06:17:10;;;;;;;2.30;1.08;;;14.60;99.90;;;;;;4177586;28;20080;-64
2023/09/25 06:19:12;;;;;;;1.40;1.00;;;14.60;99.90;;;;;;4182263;28;20494;-64
2023/09/25 06:21:13;;;;;;;1.58;1.13;;;14.60;99.90;;;;;;4172621;28;20029;-64
2023/09/25 06:23:14;;;;;;;3.60;1.52;;;14.70;99.90;;;;;;4185526;28;20489;-64
2023/09/25 06:25:18;;;;;;;2.30;1.00;;;14.70;99.90;;;;;;4185194;28;20040;-64
2023/09/25 06:27:19;;;;;;;3.63;1.52;;;14.80;99.90;;;;;;4180601;28;20076;-66
2023/09/25 06:29:21;;;;;;;1.50;1.02;;;14.80;99.90;;;;;;4179830;28;20119;-64
2023/09/25 06:31:23;;;;;;;2.08;1.13;;;14.90;99.90;;;;;;4178561;28;20041;-66
2023/09/25 06:33:23;;;;;;;1.48;1.25;;;14.90;99.90;;;;;;4179200;28;20040;-67
2023/09/25 06:35:24;;;;;;;4.85;1.67;;;14.90;99.90;;;;;;4180009;28;20485;-67
2023/09/25 06:37:25;;;;;;;1.90;1.38;;;15.00;99.90;;;;;;4178482;28;20028;-65
2023/09/25 06:39:26;;;;;;;2.67;1.25;;;15.10;99.90;;;;;;4177472;28;20401;-64
2023/09/25 06:41:27;;;;;;;1.73;1.20;;;15.20;99.90;;;;;;4174875;28;20375;-67
2023/09/25 06:43:28;;;;;;;2.72;1.23;;;15.30;99.90;;;;;;4180480;28;20094;-64
2023/09/25 06:45:28;;;;;;;1.90;1.17;;;15.40;99.90;;;;;;4179580;28;20089;-67
2023/09/25 06:47:29;;;;;;;2.70;1.10;;;15.50;99.90;;;;;;4179110;28;20048;-65
2023/09/25 06:49:30;;;;;;;3.58;1.40;;;15.60;99.90;;;;;;4181882;28;20072;-66
2023/09/25 06:51:31;;;;;;;2.63;1.25;;;15.60;99.90;;;;;;4179930;28;20056;-65
2023/09/25 06:53:31;;;;;;;2.33;1.40;;;15.70;99.90;;;;;;4180741;28;20537;-66
2023/09/25 06:55:32;;;;;;;2.47;1.30;;;15.80;99.90;;;;;;4178623;28;20036;-64
2023/09/25 06:57:33;;;;;;;2.13;1.10;;;15.90;99.90;;;;;;4173006;28;20037;-66
2023/09/25 06:59:34;;;;;;;3.28;1.40;;;15.90;99.90;;;;;;4172121;28;20468;-67
2023/09/25 07:01:35;;;;;;;1.55;1.10;;;16.00;99.90;;;;;;4173462;28;20053;-65
2023/09/25 07:03:36;;;;;;;2.33;1.20;;;16.10;99.90;;;;;;4146276;28;20051;-64
2023/09/25 07:05:36;;;;;;;1.80;1.30;;;16.10;99.90;;;;;;4176794;28;20086;-64
2023/09/25 07:07:37;;;;;;;2.47;1.50;;;16.20;99.90;;;;;;4179656;28;20116;-65
2023/09/25 07:09:38;;;;;;;2.03;1.42;;;16.20;99.90;;;;;;4178053;28;20036;-65
2023/09/25 07:11:38;;;;;;;2.78;1.25;;;16.30;99.90;;;;;;4178947;28;20047;-67
2023/09/25 07:13:39;;;;;;;2.17;1.20;;;16.40;99.90;;;;;;4176528;28;20041;-67
2023/09/25 07:15:39;;;;;;;1.75;1.27;;;16.50;99.90;;;;;;4177561;28;20040;-68
2023/09/25 07:17:40;;;;;;;3.42;1.55;;;16.60;99.90;;;;;;4177183;28;20041;-67
2023/09/25 07:19:41;;;;;;;2.60;1.35;;;16.70;99.90;;;;;;4178233;28;20041;-67
2023/09/25 07:21:41;;;;;;;3.55;1.40;;;16.90;99.90;;;;;;4177352;28;20064;-67
2023/09/25 07:23:42;;;;;;;1.63;1.20;;;16.90;99.90;;;;;;4178595;28;20128;-67
2023/09/25 07:25:42;;;;;;;3.15;1.25;;;17.00;99.90;;;;;;4172524;28;20045;-67
2023/09/25 07:27:43;;;;;;;2.95;1.00;;;17.20;99.90;;;;;;4176605;28;20044;-68
2023/09/25 07:29:45;;;;;;;1.25;0.90;;;17.30;99.90;;;;;;4181807;28;20106;-67
2023/09/25 07:31:46;;;;;;;1.73;1.17;;;17.30;99.90;;;;;;4175669;28;20068;-67
2023/09/25 07:33:47;;;;;;;5.38;1.38;;;17.40;99.90;;;;;;4175311;28;20048;-66
2023/09/25 07:35:48;;;;;;;1.67;1.10;;;17.50;99.90;;;;;;4173494;28;20064;-67
2023/09/25 07:37:49;;;;;;;3.17;1.33;;;17.60;99.90;;;;;;4178216;28;20263;-66
2023/09/25 07:39:49;;;;;;;3.80;1.35;;;17.70;99.90;;;;;;4178436;28;20043;-66
2023/09/25 07:41:50;;;;;;;2.22;1.50;;;17.90;99.90;;;;;;4177399;28;20037;-66
2023/09/25 07:43:51;;;;;;;3.22;1.52;;;17.90;99.90;;;;;;4178451;28;20037;-65
2023/09/25 07:45:52;;;;;;;2.47;1.20;;;18.10;99.90;;;;;;4176388;28;20726;-66
2023/09/25 07:47:54;;;;;;;1.73;1.35;;;18.30;99.90;;;;;;4176773;28;20053;-65
2023/09/25 07:49:55;;;;;;;2.88;1.65;;;18.40;99.90;;;;;;4178474;28;21552;-65
2023/09/25 07:52:00;;;;;;;2.58;1.40;;;18.50;99.90;;;;;;4179108;28;20035;-65
2023/09/25 07:54:02;;;;;;;3.60;1.58;;;18.70;99.90;;;;;;4178679;28;20021;-65
2023/09/25 07:56:03;;;;;;;2.70;1.55;;;18.80;99.90;;;;;;4192345;28;20028;-65
2023/09/25 07:58:04;;;;;;;2.30;1.60;;;19.00;99.90;;;;;;4178413;28;20159;-67
2023/09/25 08:00:23;;;;;;;4.65;1.65;;;19.10;99.90;;;;;;4177909;28;20191;-67
2023/09/25 08:02:25;;;;;;;1.45;1.20;;;19.20;99.90;;;;;;4177630;28;20041;-65
2023/09/25 08:04:26;;;;;;;3.15;1.30;;;19.20;99.90;;;;;;4162641;28;20459;-66
2023/09/25 08:06:27;;;;;;;5.40;1.90;;;19.30;99.90;;;;;;4176292;28;20032;-66
2023/09/25 08:08:28;;;;;;;2.95;1.75;;;19.30;99.90;;;;;;4186036;28;20086;-66
2023/09/25 08:10:29;;;;;;;2.75;1.48;;;19.40;99.90;;;;;;4178386;28;20415;-65
2023/09/25 08:12:30;;;;;;;3.67;1.73;;;19.40;99.90;;;;;;4180781;28;20037;-67
2023/09/25 08:14:31;;;;;;;2.22;1.50;;;19.60;99.90;;;;;;4181276;28;20047;-67
2023/09/25 08:16:32;;;;;;;3.08;1.63;;;19.60;99.90;;;;;;4181968;28;20033;-67
2023/09/25 08:18:33;;;;;;;2.90;1.67;;;19.70;99.90;;;;;;4182077;28;20056;-66
2023/09/25 08:20:34;;;;;;;4.20;2.15;;;19.50;99.90;;;;;;4179457;28;20044;-71
2023/09/25 08:22:36;;;;;;;3.28;1.77;;;19.60;99.90;;;;;;4180526;28;20478;-73
2023/09/25 08:24:37;;;;;;;2.67;1.48;;;19.50;99.90;;;;;;4179935;28;20033;-70
2023/09/25 08:26:39;;;;;;;5.18;1.75;;;19.60;99.90;;;;;;4180965;28;20045;-72
2023/09/25 08:28:39;;;;;;;2.75;1.58;;;19.40;99.90;;;;;;4177526;28;20041;-73
2023/09/25 08:30:41;;;;;;;4.50;2.25;;;19.50;99.90;;;;;;4179178;28;20052;-72
2023/09/25 08:32:41;;;;;;;2.45;1.65;;;19.50;99.90;;;;;;4181260;28;20124;-73
2023/09/25 08:34:42;;;;;;;2.53;1.70;;;19.40;99.90;;;;;;4180690;28;20446;-73
2023/09/25 08:36:42;;;;;;;2.88;1.63;;;19.40;99.90;;;;;;4179336;28;20384;-70
2023/09/25 08:38:43;;;;;;;2.97;1.80;;;19.50;99.90;;;;;;4181493;28;20406;-73
2023/09/25 08:40:51;;;;;;;2.63;1.88;;;19.40;99.90;;;;;;4180116;28;20036;-71
2023/09/25 08:42:52;;;;;;;2.20;1.55;;;19.40;99.90;;;;;;4178230;28;20036;-73
2023/09/25 08:44:59;;;;;;;2.55;1.73;;;19.40;99.90;;;;;;4179720;28;20041;-72
2023/09/25 08:47:00;;;;;;;2.85;1.55;;;19.30;99.90;;;;;;4175775;28;20520;-73
2023/09/25 08:49:02;;;;;;;3.63;1.55;;;19.40;99.90;;;;;;4181735;28;20041;-70
2023/09/25 08:51:04;;;;;;;4.95;1.73;;;19.40;99.90;;;;;;4181528;28;20430;-73
2023/09/25 08:53:06;;;;;;;3.58;1.73;;;19.40;99.90;;;;;;4179108;28;20089;-72
2023/09/25 08:55:08;;;;;;;3.80;1.88;;;19.40;99.90;;;;;;4182040;28;20089;-73
2023/09/25 08:57:10;;;;;;;4.10;2.03;;;19.40;99.90;;;;;;4179594;28;20072;-73
2023/09/25 08:59:11;;;;;;;3.78;2.10;;;19.40;99.90;;;;;;4182421;28;20051;-68
2023/09/25 09:01:12;;;;;;;5.70;1.95;;;19.40;99.90;;;;;;4181448;28;20029;-67
2023/09/25 09:03:13;;;;;;;6.50;1.88;;;19.50;99.90;;;;;;4180438;28;20124;-68
2023/09/25 09:05:14;;;;;;;4.07;2.03;;;19.50;99.90;;;;;;4180767;28;20080;-68
2023/09/25 09:07:15;;;;;;;5.60;1.70;;;19.50;99.90;;;;;;4179484;28;20040;-68
2023/09/25 09:09:16;;;;;;;4.43;2.10;;;19.50;99.90;;;;;;4182412;28;20032;-68
2023/09/25 09:11:16;;;;;;;2.67;1.65;;;19.50;99.90;;;;;;4179317;28;20037;-68
2023/09/25 09:13:22;;;;;;;3.58;1.70;;;19.50;99.90;;;;;;4182613;28;20466;-68
2023/09/25 09:15:26;;;;;;;2.65;1.50;;;19.50;99.90;;;;;;4178883;28;20033;-67
2023/09/25 09:17:29;;;;;;;3.83;1.77;;;19.60;99.90;;;;;;4182431;28;20045;-68
2023/09/25 09:19:48;;;;;;;4.78;1.88;;;19.70;99.90;;;;;;4176857;28;20043;-68
2023/09/25 09:22:04;;;;;;;3.33;1.63;;;19.60;99.90;;;;;;4176976;28;20048;-68
2023/09/25 09:24:08;;;;;;;10.13;1.75;;;19.70;99.90;;;;;;4176646;28;20043;-68
2023/09/25 09:26:14;;;;;;;3.28;1.75;;;19.70;99.90;;;;;;4176435;28;20041;-68
2023/09/25 09:28:15;;;;;;;2.40;1.50;;;19.70;99.90;;;;;;4181340;28;20033;-69
2023/09/25 09:30:24;;;;;;;3.83;1.58;;;19.60;99.90;;;;;;4174731;28;20082;-72
2023/09/25 09:32:26;;;;;;;3.40;1.40;;;19.70;99.90;;;;;;4177368;28;20037;-72
2023/09/25 09:34:27;;;;;;;2.40;1.33;;;19.70;99.90;;;;;;4164113;28;20474;-71
2023/09/25 09:36:28;;;;;;;2.60;1.27;;;19.70;99.90;;;;;;4162164;28;20045;-73
2023/09/25 09:38:29;;;;;;;3.30;1.75;;;19.70;99.90;;;;;;4168237;28;20355;-71
2023/09/25 09:40:30;;;;;;;4.35;1.52;;;19.80;99.90;;;;;;4178053;28;20032;-72
2023/09/25 09:42:32;;;;;;;3.03;1.58;;;19.80;99.90;;;;;;4165553;28;20479;-72
2023/09/25 09:44:33;;;;;;;1.70;1.38;;;19.70;99.90;;;;;;4181237;28;20494;-70
2023/09/25 09:46:35;;;;;;;2.83;1.67;;;19.70;99.90;;;;;;4176722;28;20046;-72
2023/09/25 09:48:38;;;;;;;2.38;1.42;;;19.80;99.90;;;;;;4177946;28;20469;-71
2023/09/25 09:50:42;;;;;;;2.20;1.08;;;19.90;99.90;;;;;;4178867;28;20033;-72
2023/09/25 09:52:44;;;;;;;2.65;1.52;;;20.00;99.90;;;;;;4181598;28;20067;-73
2023/09/25 09:54:47;;;;;;;3.70;1.70;;;20.10;99.90;;;;;;4180198;28;20063;-73
2023/09/25 09:56:48;;;;;;;2.05;1.27;;;20.10;99.90;;;;;;4180054;28;20449;-72
2023/09/25 09:58:50;;;;;;;3.25;1.50;;;20.20;99.90;;;;;;4176419;28;20059;-73
2023/09/25 10:00:52;;;;;;;2.85;1.33;;;20.20;99.70;;;;;;4174675;28;20688;-72
2023/09/25 10:02:53;;;;;;;3.00;1.40;;;20.30;99.90;;;;;;4181370;28;20063;-74
2023/09/25 10:04:54;;;;;;;2.22;1.38;;;20.40;99.90;;;;;;4179796;28;20040;-73
2023/09/25 10:07:00;;;;;;;3.95;1.42;;;20.40;99.90;;;;;;4177399;28;20068;-74
2023/09/25 10:09:11;;;;;;;4.13;1.48;;;20.50;99.90;;;;;;4180225;28;20029;-70
2023/09/25 10:11:16;;;;;;;2.63;1.58;;;20.40;99.50;;;;;;4176918;28;20036;-74
2023/09/25 10:13:21;;;;;;;3.50;1.42;;;20.50;99.60;;;;;;4178884;28;20041;-74
2023/09/25 10:15:27;;;;;;;2.88;1.58;;;20.60;99.70;;;;;;4176472;28;20055;-74
2023/09/25 10:17:41;;;;;;;2.60;1.70;;;20.70;99.90;;;;;;4176859;28;20033;-69
2023/09/25 10:19:42;;;;;;;2.15;1.25;;;20.70;98.70;;;;;;4176114;28;20546;-73
2023/09/25 10:22:21;;;;;;;1.95;1.27;;;20.80;98.90;;;;;;4170310;28;20056;-72
2023/09/25 10:24:25;;;;;;;4.00;1.63;;;20.90;99.90;;;;;;4169367;28;20036;-73
2023/09/25 10:26:28;;;;;;;3.55;1.60;;;20.90;99.80;;;;;;4178479;28;20128;-72
2023/09/25 10:28:32;;;;;;;2.63;1.50;;;20.90;98.60;;;;;;4180810;28;20507;-73
2023/09/25 10:30:35;;;;;;;3.13;1.38;;;21.00;99.40;;;;;;4178802;28;20516;-73
2023/09/25 10:32:38;;;;;;;4.93;1.90;;;21.00;99.00;;;;;;4178789;28;20036;-72
2023/09/25 10:34:39;;;;;;;3.28;1.42;;;20.90;98.20;;;;;;4178055;28;20093;-72